ACA355 CYYZ-CYUL
Flight info
| Callsign | ACA355 |
|---|---|
| Flight time | 1h 1m |
| Altitude | 35000 |
| Route | DEDKI5 MIGLO HABBS7 |
| Aircraft | B738/M-SDE2E3FGHIRWXY/LB1 |
Departure
| Time | 2026-05-07 22:10 |
|---|---|
| Airport | Toronto Pearson International Airport (CYYZ) |
Arrival
| Time | 2026-05-07 23:11 |
|---|---|
| Airport | Montreal / Pierre Elliott Trudeau International Airport (CYUL) |
| Time | Latitude | Longitude | Altitude | Speed | Heading |
|---|---|---|---|---|---|
| 2026-05-07 21:44 | 43.68036 | -79.61726 | 570 ft | 0 kts | 136° |
| 2026-05-07 21:57 | 43.68037 | -79.61728 | 570 ft | 2 kts | 136° |
| 2026-05-07 21:57 | 43.68055 | -79.61751 | 570 ft | 2 kts | 136° |
| 2026-05-07 21:58 | 43.68073 | -79.61775 | 571 ft | 3 kts | 136° |
| 2026-05-07 21:58 | 43.68088 | -79.61794 | 571 ft | 3 kts | 136° |
| 2026-05-07 21:58 | 43.68089 | -79.61795 | 571 ft | 0 kts | 136° |
| 2026-05-07 22:01 | 43.68096 | -79.61806 | 571 ft | 2 kts | 136° |
| 2026-05-07 22:02 | 43.68107 | -79.61820 | 571 ft | 2 kts | 137° |
| 2026-05-07 22:02 | 43.68119 | -79.61833 | 572 ft | 2 kts | 155° |
| 2026-05-07 22:02 | 43.68133 | -79.61838 | 572 ft | 2 kts | 184° |
| 2026-05-07 22:02 | 43.68148 | -79.61832 | 572 ft | 2 kts | 214° |
| 2026-05-07 22:03 | 43.68154 | -79.61825 | 572 ft | 1 kts | 230° |
| 2026-05-07 22:03 | 43.68157 | -79.61820 | 572 ft | 0 kts | 227° |
| 2026-05-07 22:05 | 43.68136 | -79.61852 | 572 ft | 9 kts | 227° |
| 2026-05-07 22:05 | 43.68079 | -79.61936 | 571 ft | 12 kts | 226° |
| 2026-05-07 22:06 | 43.68012 | -79.61992 | 572 ft | 12 kts | 191° |
| 2026-05-07 22:06 | 43.67958 | -79.62077 | 572 ft | 14 kts | 296° |
| 2026-05-07 22:06 | 43.68035 | -79.62186 | 573 ft | 17 kts | 318° |
| 2026-05-07 22:06 | 43.68136 | -79.62312 | 572 ft | 21 kts | 315° |
| 2026-05-07 22:07 | 43.68245 | -79.62458 | 570 ft | 24 kts | 317° |
| 2026-05-07 22:07 | 43.68346 | -79.62584 | 567 ft | 13 kts | 318° |
| 2026-05-07 22:07 | 43.68431 | -79.62690 | 563 ft | 19 kts | 316° |
| 2026-05-07 22:07 | 43.68538 | -79.62824 | 559 ft | 18 kts | 320° |
| 2026-05-07 22:08 | 43.68636 | -79.62959 | 557 ft | 17 kts | 316° |
| 2026-05-07 22:08 | 43.68734 | -79.63086 | 556 ft | 21 kts | 315° |
| 2026-05-07 22:08 | 43.68849 | -79.63238 | 554 ft | 24 kts | 315° |
| 2026-05-07 22:08 | 43.68980 | -79.63405 | 551 ft | 24 kts | 315° |
| 2026-05-07 22:09 | 43.69096 | -79.63532 | 547 ft | 18 kts | 356° |
| 2026-05-07 22:09 | 43.69194 | -79.63434 | 548 ft | 16 kts | 25° |
| 2026-05-07 22:09 | 43.69305 | -79.63422 | 548 ft | 16 kts | 0° |
| 2026-05-07 22:09 | 43.69399 | -79.63490 | 546 ft | 16 kts | 294° |
| 2026-05-07 22:10 | 43.69343 | -79.63609 | 544 ft | 17 kts | 226° |
| 2026-05-07 22:10 | 43.69133 | -79.63911 | 543 ft | 86 kts | 227° |
| 2026-05-07 22:10 | 43.68523 | -79.64798 | 543 ft | 167 kts | 227° |
| 2026-05-07 22:10 | 43.67630 | -79.66056 | 1242 ft | 191 kts | 228° |
| 2026-05-07 22:11 | 43.66829 | -79.67466 | 2289 ft | 199 kts | 240° |
| 2026-05-07 22:11 | 43.66107 | -79.69128 | 3152 ft | 211 kts | 243° |
| 2026-05-07 22:11 | 43.65255 | -79.70983 | 2824 ft | 241 kts | 238° |
| 2026-05-07 22:11 | 43.64291 | -79.72880 | 2390 ft | 247 kts | 237° |
| 2026-05-07 22:12 | 43.63301 | -79.74786 | 2259 ft | 241 kts | 236° |
| 2026-05-07 22:12 | 43.62317 | -79.76699 | 2262 ft | 248 kts | 237° |
| 2026-05-07 22:12 | 43.61321 | -79.78664 | 2257 ft | 249 kts | 237° |
| 2026-05-07 22:12 | 43.60344 | -79.80595 | 2259 ft | 248 kts | 238° |
| 2026-05-07 22:13 | 43.59355 | -79.82554 | 2264 ft | 248 kts | 237° |
| 2026-05-07 22:13 | 43.58333 | -79.84583 | 2768 ft | 261 kts | 237° |
| 2026-05-07 22:13 | 43.57318 | -79.86592 | 3804 ft | 257 kts | 238° |
| 2026-05-07 22:13 | 43.56315 | -79.88586 | 4752 ft | 255 kts | 238° |
| 2026-05-07 22:14 | 43.55270 | -79.90516 | 5579 ft | 259 kts | 228° |
| 2026-05-07 22:14 | 43.53731 | -79.91813 | 6385 ft | 269 kts | 198° |
| 2026-05-07 22:14 | 43.51852 | -79.91902 | 7197 ft | 278 kts | 171° |
| 2026-05-07 22:14 | 43.50070 | -79.90841 | 7990 ft | 287 kts | 148° |
| 2026-05-07 22:15 | 43.48647 | -79.88897 | 8738 ft | 296 kts | 124° |
| 2026-05-07 22:15 | 43.47984 | -79.86228 | 9442 ft | 304 kts | 94° |
| 2026-05-07 22:15 | 43.48123 | -79.83335 | 10164 ft | 308 kts | 80° |
| 2026-05-07 22:15 | 43.48563 | -79.80409 | 10708 ft | 318 kts | 77° |
| 2026-05-07 22:16 | 43.49048 | -79.77432 | 11340 ft | 326 kts | 77° |
| 2026-05-07 22:16 | 43.49502 | -79.74355 | 12102 ft | 330 kts | 79° |
| 2026-05-07 22:16 | 43.49915 | -79.71249 | 12839 ft | 335 kts | 80° |
| 2026-05-07 22:16 | 43.50306 | -79.68096 | 13569 ft | 339 kts | 80° |
| 2026-05-07 22:17 | 43.50695 | -79.64868 | 14314 ft | 344 kts | 80° |
| 2026-05-07 22:17 | 43.51080 | -79.61625 | 15085 ft | 347 kts | 80° |
| 2026-05-07 22:17 | 43.51470 | -79.58337 | 15830 ft | 352 kts | 80° |
| 2026-05-07 22:17 | 43.51866 | -79.55001 | 16581 ft | 356 kts | 80° |
| 2026-05-07 22:18 | 43.52262 | -79.51662 | 17282 ft | 360 kts | 80° |
| 2026-05-07 22:18 | 43.53080 | -79.44804 | 18701 ft | 367 kts | 79° |
| 2026-05-07 22:18 | 43.53581 | -79.41355 | 19328 ft | 373 kts | 75° |
| 2026-05-07 22:19 | 43.54262 | -79.37913 | 19993 ft | 376 kts | 72° |
| 2026-05-07 22:19 | 43.55047 | -79.34439 | 20630 ft | 380 kts | 71° |
| 2026-05-07 22:19 | 43.55856 | -79.30991 | 21217 ft | 385 kts | 71° |
| 2026-05-07 22:19 | 43.56684 | -79.27469 | 21821 ft | 389 kts | 71° |
| 2026-05-07 22:20 | 43.57514 | -79.23897 | 22356 ft | 394 kts | 72° |
| 2026-05-07 22:20 | 43.58335 | -79.20307 | 23009 ft | 395 kts | 72° |
| 2026-05-07 22:20 | 43.59159 | -79.16667 | 23587 ft | 398 kts | 72° |
| 2026-05-07 22:20 | 43.59975 | -79.13028 | 24099 ft | 402 kts | 72° |
| 2026-05-07 22:21 | 43.60801 | -79.09318 | 24608 ft | 406 kts | 73° |
| 2026-05-07 22:21 | 43.61631 | -79.05580 | 24957 ft | 413 kts | 73° |
| 2026-05-07 22:21 | 43.62460 | -79.01833 | 25464 ft | 415 kts | 72° |
| 2026-05-07 22:21 | 43.63304 | -78.98005 | 25887 ft | 419 kts | 72° |
| 2026-05-07 22:22 | 43.64158 | -78.94129 | 26321 ft | 422 kts | 72° |
| 2026-05-07 22:22 | 43.65015 | -78.90234 | 26610 ft | 429 kts | 73° |
| 2026-05-07 22:22 | 43.65875 | -78.86314 | 26961 ft | 434 kts | 72° |
| 2026-05-07 22:22 | 43.66750 | -78.82324 | 27348 ft | 438 kts | 73° |
| 2026-05-07 22:23 | 43.67631 | -78.78293 | 27730 ft | 440 kts | 72° |
| 2026-05-07 22:23 | 43.68517 | -78.74235 | 28045 ft | 444 kts | 72° |
| 2026-05-07 22:23 | 43.69475 | -78.70161 | 28324 ft | 448 kts | 69° |
| 2026-05-07 22:23 | 43.70591 | -78.66142 | 28568 ft | 453 kts | 66° |
| 2026-05-07 22:24 | 43.71811 | -78.62134 | 28906 ft | 454 kts | 65° |
| 2026-05-07 22:24 | 43.73069 | -78.58147 | 29127 ft | 460 kts | 65° |
| 2026-05-07 22:24 | 43.74376 | -78.54048 | 29386 ft | 464 kts | 64° |
| 2026-05-07 22:24 | 43.75657 | -78.50017 | 29678 ft | 467 kts | 64° |
| 2026-05-07 22:25 | 43.76960 | -78.45879 | 29995 ft | 469 kts | 65° |
| 2026-05-07 22:25 | 43.78253 | -78.41736 | 30227 ft | 473 kts | 65° |
| 2026-05-07 22:25 | 43.79554 | -78.37530 | 30492 ft | 476 kts | 65° |
| 2026-05-07 22:25 | 43.80834 | -78.33368 | 30790 ft | 477 kts | 66° |
| 2026-05-07 22:26 | 43.82142 | -78.29089 | 30992 ft | 481 kts | 66° |
| 2026-05-07 22:26 | 43.83429 | -78.24863 | 31256 ft | 483 kts | 66° |
| 2026-05-07 22:26 | 43.84740 | -78.20551 | 31554 ft | 484 kts | 66° |
| 2026-05-07 22:26 | 43.86034 | -78.16277 | 31844 ft | 485 kts | 66° |
| 2026-05-07 22:27 | 43.87336 | -78.11969 | 32082 ft | 488 kts | 66° |
| 2026-05-07 22:27 | 43.88642 | -78.07639 | 32317 ft | 490 kts | 66° |
| 2026-05-07 22:27 | 43.89944 | -78.03315 | 32595 ft | 491 kts | 66° |
| 2026-05-07 22:27 | 43.91264 | -77.98923 | 32836 ft | 493 kts | 66° |
| 2026-05-07 22:28 | 43.92571 | -77.94565 | 33042 ft | 496 kts | 66° |
| 2026-05-07 22:28 | 43.93899 | -77.90131 | 33277 ft | 497 kts | 66° |
| 2026-05-07 22:28 | 43.95210 | -77.85746 | 33563 ft | 498 kts | 66° |
| 2026-05-07 22:28 | 43.96543 | -77.81285 | 33823 ft | 500 kts | 66° |
| 2026-05-07 22:29 | 43.97863 | -77.76859 | 34108 ft | 501 kts | 66° |
| 2026-05-07 22:29 | 43.99193 | -77.72387 | 34506 ft | 498 kts | 66° |
| 2026-05-07 22:29 | 44.00497 | -77.67998 | 34835 ft | 497 kts | 66° |
| 2026-05-07 22:30 | 44.03145 | -77.59056 | 34890 ft | 498 kts | 66° |
| 2026-05-07 22:30 | 44.05732 | -77.50290 | 34890 ft | 495 kts | 66° |
| 2026-05-07 22:31 | 44.08614 | -77.41582 | 34891 ft | 495 kts | 59° |
| 2026-05-07 22:31 | 44.12133 | -77.33401 | 34886 ft | 491 kts | 55° |
| 2026-05-07 22:32 | 44.15878 | -77.25468 | 34885 ft | 493 kts | 54° |
| 2026-05-07 22:32 | 44.19657 | -77.17529 | 34877 ft | 493 kts | 54° |
| 2026-05-07 22:33 | 44.23394 | -77.09566 | 34873 ft | 492 kts | 54° |
| 2026-05-07 22:33 | 44.27090 | -77.01589 | 34872 ft | 492 kts | 55° |
| 2026-05-07 22:34 | 44.30785 | -76.93555 | 34872 ft | 493 kts | 55° |
| 2026-05-07 22:34 | 44.34444 | -76.85563 | 34871 ft | 492 kts | 55° |
| 2026-05-07 22:35 | 44.38104 | -76.77543 | 34875 ft | 492 kts | 55° |
| 2026-05-07 22:35 | 44.41776 | -76.69477 | 34872 ft | 491 kts | 55° |
| 2026-05-07 22:36 | 44.45437 | -76.61414 | 34865 ft | 491 kts | 55° |
| 2026-05-07 22:36 | 44.49089 | -76.53348 | 34864 ft | 492 kts | 55° |
| 2026-05-07 22:37 | 44.52742 | -76.45256 | 34862 ft | 491 kts | 55° |
| 2026-05-07 22:37 | 44.56368 | -76.37204 | 34855 ft | 491 kts | 55° |
| 2026-05-07 22:38 | 44.59992 | -76.29127 | 34858 ft | 491 kts | 56° |
| 2026-05-07 22:38 | 44.63512 | -76.20898 | 34849 ft | 491 kts | 60° |
| 2026-05-07 22:39 | 44.66411 | -76.12242 | 34848 ft | 492 kts | 66° |
| 2026-05-07 22:39 | 44.68996 | -76.03405 | 34847 ft | 492 kts | 67° |
| 2026-05-07 22:40 | 44.71518 | -75.94460 | 34844 ft | 491 kts | 68° |
| 2026-05-07 22:40 | 44.73899 | -75.85460 | 34845 ft | 492 kts | 69° |
| 2026-05-07 22:41 | 44.76233 | -75.76450 | 34844 ft | 492 kts | 69° |
| 2026-05-07 22:41 | 44.78577 | -75.67442 | 34848 ft | 493 kts | 69° |
| 2026-05-07 22:42 | 44.80947 | -75.58388 | 34842 ft | 493 kts | 69° |
| 2026-05-07 22:42 | 44.83298 | -75.49428 | 34528 ft | 485 kts | 69° |
| 2026-05-07 22:42 | 44.84473 | -75.44968 | 34008 ft | 485 kts | 68° |
| 2026-05-07 22:43 | 44.85672 | -75.40582 | 33541 ft | 483 kts | 68° |
| 2026-05-07 22:43 | 44.86910 | -75.36183 | 33135 ft | 480 kts | 67° |
| 2026-05-07 22:43 | 44.88152 | -75.31824 | 32753 ft | 478 kts | 68° |
| 2026-05-07 22:43 | 44.89383 | -75.27522 | 32383 ft | 474 kts | 68° |
| 2026-05-07 22:44 | 44.90612 | -75.23216 | 31994 ft | 472 kts | 68° |
| 2026-05-07 22:44 | 44.91833 | -75.18918 | 31623 ft | 468 kts | 67° |
| 2026-05-07 22:44 | 44.93024 | -75.14711 | 31256 ft | 465 kts | 68° |
| 2026-05-07 22:44 | 44.94223 | -75.10452 | 30845 ft | 463 kts | 68° |
| 2026-05-07 22:45 | 44.95391 | -75.06293 | 30473 ft | 460 kts | 68° |
| 2026-05-07 22:45 | 44.96565 | -75.02097 | 30154 ft | 456 kts | 67° |
| 2026-05-07 22:45 | 44.97722 | -74.97977 | 29799 ft | 452 kts | 67° |
| 2026-05-07 22:45 | 44.98965 | -74.93920 | 29382 ft | 450 kts | 63° |
| 2026-05-07 22:46 | 45.00365 | -74.90025 | 29118 ft | 442 kts | 59° |
| 2026-05-07 22:46 | 45.01854 | -74.86217 | 28755 ft | 439 kts | 58° |
| 2026-05-07 22:46 | 45.03343 | -74.82549 | 28417 ft | 435 kts | 57° |
| 2026-05-07 22:46 | 45.04857 | -74.78860 | 28030 ft | 432 kts | 57° |
| 2026-05-07 22:47 | 45.06353 | -74.75208 | 27665 ft | 429 kts | 57° |
| 2026-05-07 22:47 | 45.07840 | -74.71549 | 27319 ft | 424 kts | 57° |
| 2026-05-07 22:47 | 45.09283 | -74.67973 | 26907 ft | 420 kts | 58° |
| 2026-05-07 22:47 | 45.10707 | -74.64417 | 26498 ft | 417 kts | 58° |
| 2026-05-07 22:48 | 45.12127 | -74.60865 | 26049 ft | 414 kts | 57° |
| 2026-05-07 22:48 | 45.13580 | -74.57389 | 25663 ft | 409 kts | 56° |
| 2026-05-07 22:48 | 45.15070 | -74.53971 | 25221 ft | 406 kts | 54° |
| 2026-05-07 22:48 | 45.16563 | -74.50608 | 24821 ft | 402 kts | 54° |
| 2026-05-07 22:49 | 45.18045 | -74.47278 | 24438 ft | 397 kts | 54° |
| 2026-05-07 22:49 | 45.19517 | -74.43959 | 23958 ft | 395 kts | 54° |
| 2026-05-07 22:49 | 45.20964 | -74.40681 | 23495 ft | 392 kts | 54° |
| 2026-05-07 22:49 | 45.22380 | -74.37444 | 23086 ft | 388 kts | 55° |
| 2026-05-07 22:50 | 45.23806 | -74.34165 | 22561 ft | 387 kts | 56° |
| 2026-05-07 22:50 | 45.25206 | -74.30931 | 22118 ft | 384 kts | 56° |
| 2026-05-07 22:50 | 45.26580 | -74.27748 | 21693 ft | 380 kts | 56° |
| 2026-05-07 22:50 | 45.27949 | -74.24571 | 21222 ft | 378 kts | 56° |
| 2026-05-07 22:51 | 45.29312 | -74.21404 | 20774 ft | 375 kts | 56° |
| 2026-05-07 22:51 | 45.30667 | -74.18252 | 20323 ft | 373 kts | 56° |
| 2026-05-07 22:51 | 45.32012 | -74.15120 | 19891 ft | 369 kts | 56° |
| 2026-05-07 22:51 | 45.33347 | -74.12009 | 19427 ft | 367 kts | 55° |
| 2026-05-07 22:52 | 45.34677 | -74.08932 | 18989 ft | 363 kts | 54° |
| 2026-05-07 22:52 | 45.36071 | -74.06027 | 18513 ft | 360 kts | 49° |
| 2026-05-07 22:52 | 45.37681 | -74.03377 | 18227 ft | 348 kts | 41° |
| 2026-05-07 22:52 | 45.39400 | -74.01018 | 18053 ft | 335 kts | 37° |
| 2026-05-07 22:53 | 45.41117 | -73.98843 | 17573 ft | 334 kts | 36° |
| 2026-05-07 22:53 | 45.42874 | -73.96664 | 17190 ft | 331 kts | 36° |
| 2026-05-07 22:53 | 45.44595 | -73.94504 | 16849 ft | 326 kts | 37° |
| 2026-05-07 22:53 | 45.46240 | -73.92399 | 16753 ft | 314 kts | 37° |
| 2026-05-07 22:54 | 45.47817 | -73.90350 | 16640 ft | 302 kts | 37° |
| 2026-05-07 22:54 | 45.49346 | -73.88353 | 16510 ft | 292 kts | 37° |
| 2026-05-07 22:54 | 45.50818 | -73.86430 | 16196 ft | 289 kts | 37° |
| 2026-05-07 22:54 | 45.52292 | -73.84508 | 15875 ft | 286 kts | 37° |
| 2026-05-07 22:55 | 45.53767 | -73.82583 | 15565 ft | 283 kts | 37° |
| 2026-05-07 22:55 | 45.55199 | -73.80711 | 15245 ft | 281 kts | 37° |
| 2026-05-07 22:55 | 45.56643 | -73.78821 | 14916 ft | 278 kts | 37° |
| 2026-05-07 22:55 | 45.58056 | -73.76968 | 14579 ft | 277 kts | 37° |
| 2026-05-07 22:56 | 45.59461 | -73.75129 | 14268 ft | 274 kts | 36° |
| 2026-05-07 22:56 | 45.60969 | -73.73515 | 13907 ft | 267 kts | 21° |
| 2026-05-07 22:56 | 45.62696 | -73.72871 | 13552 ft | 251 kts | 351° |
| 2026-05-07 22:56 | 45.64338 | -73.73420 | 13233 ft | 238 kts | 329° |
| 2026-05-07 22:57 | 45.65728 | -73.74625 | 12882 ft | 233 kts | 317° |
| 2026-05-07 22:57 | 45.66796 | -73.76326 | 12482 ft | 229 kts | 295° |
| 2026-05-07 22:57 | 45.67251 | -73.78468 | 12165 ft | 226 kts | 276° |
| 2026-05-07 22:57 | 45.67252 | -73.80695 | 11809 ft | 227 kts | 263° |
| 2026-05-07 22:58 | 45.66743 | -73.82844 | 11441 ft | 231 kts | 240° |
| 2026-05-07 22:58 | 45.65684 | -73.84547 | 11121 ft | 234 kts | 226° |
| 2026-05-07 22:58 | 45.64476 | -73.86106 | 10830 ft | 232 kts | 227° |
| 2026-05-07 22:58 | 45.63310 | -73.87675 | 10501 ft | 231 kts | 227° |
| 2026-05-07 22:59 | 45.62143 | -73.89274 | 10195 ft | 230 kts | 228° |
| 2026-05-07 22:59 | 45.61004 | -73.90833 | 9896 ft | 229 kts | 227° |
| 2026-05-07 22:59 | 45.59752 | -73.92279 | 9558 ft | 233 kts | 214° |
| 2026-05-07 22:59 | 45.58199 | -73.92973 | 9221 ft | 243 kts | 187° |
| 2026-05-07 23:00 | 45.56508 | -73.92607 | 8929 ft | 249 kts | 162° |
| 2026-05-07 23:00 | 45.55030 | -73.91322 | 8595 ft | 254 kts | 139° |
| 2026-05-07 23:00 | 45.53953 | -73.89311 | 8273 ft | 256 kts | 117° |
| 2026-05-07 23:00 | 45.53365 | -73.86923 | 7932 ft | 257 kts | 97° |
| 2026-05-07 23:01 | 45.53455 | -73.84429 | 7601 ft | 253 kts | 69° |
| 2026-05-07 23:01 | 45.54276 | -73.82288 | 7354 ft | 243 kts | 44° |
| 2026-05-07 23:01 | 45.55486 | -73.80611 | 7031 ft | 240 kts | 36° |
| 2026-05-07 23:01 | 45.56724 | -73.79082 | 6815 ft | 234 kts | 36° |
| 2026-05-07 23:02 | 45.57914 | -73.77549 | 6472 ft | 232 kts | 38° |
| 2026-05-07 23:02 | 45.59101 | -73.75954 | 6009 ft | 235 kts | 39° |
| 2026-05-07 23:02 | 45.60287 | -73.74331 | 5622 ft | 235 kts | 39° |
| 2026-05-07 23:02 | 45.61455 | -73.72723 | 5245 ft | 234 kts | 39° |
| 2026-05-07 23:03 | 45.62611 | -73.71133 | 4886 ft | 232 kts | 39° |
| 2026-05-07 23:03 | 45.63782 | -73.69526 | 4508 ft | 232 kts | 39° |
| 2026-05-07 23:03 | 45.64917 | -73.67967 | 4331 ft | 222 kts | 38° |
| 2026-05-07 23:03 | 45.66013 | -73.66495 | 4226 ft | 209 kts | 37° |
| 2026-05-07 23:04 | 45.67057 | -73.65125 | 4113 ft | 199 kts | 36° |
| 2026-05-07 23:04 | 45.68008 | -73.63722 | 3860 ft | 201 kts | 51° |
| 2026-05-07 23:04 | 45.68399 | -73.61781 | 3555 ft | 207 kts | 92° |
| 2026-05-07 23:04 | 45.67955 | -73.59876 | 3304 ft | 203 kts | 123° |
| 2026-05-07 23:05 | 45.67053 | -73.58363 | 3043 ft | 197 kts | 142° |
| 2026-05-07 23:05 | 45.66007 | -73.57172 | 2957 ft | 186 kts | 146° |
| 2026-05-07 23:05 | 45.64998 | -73.56062 | 2979 ft | 181 kts | 148° |
| 2026-05-07 23:05 | 45.63910 | -73.55254 | 2978 ft | 173 kts | 173° |
| 2026-05-07 23:06 | 45.62760 | -73.55334 | 2985 ft | 162 kts | 204° |
| 2026-05-07 23:06 | 45.61786 | -73.56057 | 2981 ft | 154 kts | 225° |
| 2026-05-07 23:06 | 45.60999 | -73.57049 | 2996 ft | 148 kts | 227° |
| 2026-05-07 23:06 | 45.60245 | -73.57997 | 2971 ft | 143 kts | 228° |
| 2026-05-07 23:07 | 45.59502 | -73.58959 | 2980 ft | 142 kts | 229° |
| 2026-05-07 23:07 | 45.58773 | -73.59917 | 2964 ft | 144 kts | 229° |
| 2026-05-07 23:07 | 45.58033 | -73.60891 | 2803 ft | 143 kts | 229° |
| 2026-05-07 23:07 | 45.57303 | -73.61848 | 2579 ft | 141 kts | 229° |
| 2026-05-07 23:08 | 45.56582 | -73.62796 | 2392 ft | 141 kts | 229° |
| 2026-05-07 23:08 | 45.55845 | -73.63760 | 2189 ft | 141 kts | 229° |
| 2026-05-07 23:08 | 45.55127 | -73.64703 | 1986 ft | 142 kts | 229° |
| 2026-05-07 23:08 | 45.54404 | -73.65649 | 1800 ft | 139 kts | 228° |
| 2026-05-07 23:09 | 45.53693 | -73.66581 | 1608 ft | 140 kts | 228° |
| 2026-05-07 23:09 | 45.52966 | -73.67537 | 1414 ft | 142 kts | 228° |
| 2026-05-07 23:09 | 45.52245 | -73.68480 | 1214 ft | 138 kts | 227° |
| 2026-05-07 23:09 | 45.51561 | -73.69388 | 1016 ft | 137 kts | 229° |
| 2026-05-07 23:10 | 45.50842 | -73.70316 | 885 ft | 136 kts | 226° |
| 2026-05-07 23:10 | 45.50108 | -73.71231 | 691 ft | 138 kts | 227° |
| 2026-05-07 23:10 | 45.49424 | -73.72151 | 472 ft | 134 kts | 230° |
| 2026-05-07 23:10 | 45.48734 | -73.73041 | 261 ft | 134 kts | 229° |
| 2026-05-07 23:11 | 45.48026 | -73.73965 | 145 ft | 136 kts | 227° |
| 2026-05-07 23:11 | 45.47413 | -73.74798 | 126 ft | 89 kts | 220° |
| 2026-05-07 23:11 | 45.47098 | -73.75200 | 126 ft | 54 kts | 227° |
| 2026-05-07 23:11 | 45.46825 | -73.75539 | 126 ft | 45 kts | 205° |
| 2026-05-07 23:12 | 45.46591 | -73.75632 | 126 ft | 25 kts | 191° |
| 2026-05-07 23:12 | 45.46369 | -73.75704 | 126 ft | 29 kts | 189° |
| 2026-05-07 23:12 | 45.46207 | -73.75724 | 126 ft | 15 kts | 178° |
| 2026-05-07 23:12 | 45.46182 | -73.75723 | 126 ft | 2 kts | 179° |
| 2026-05-07 23:13 | 45.46120 | -73.75719 | 126 ft | 15 kts | 177° |
| 2026-05-07 23:13 | 45.46057 | -73.75825 | 126 ft | 18 kts | 266° |
| 2026-05-07 23:13 | 45.46009 | -73.75951 | 126 ft | 3 kts | 185° |
| 2026-05-07 23:13 | 45.46008 | -73.75951 | 126 ft | 0 kts | 185° |
| 2026-05-07 23:14 | 45.45982 | -73.75993 | 126 ft | 13 kts | 239° |
| 2026-05-07 23:14 | 45.45883 | -73.76049 | 126 ft | 18 kts | 169° |
| 2026-05-07 23:14 | 45.45776 | -73.76018 | 126 ft | 16 kts | 160° |
| 2026-05-07 23:14 | 45.45728 | -73.75867 | 126 ft | 19 kts | 95° |
| 2026-05-07 23:15 | 45.45726 | -73.75705 | 126 ft | 15 kts | 75° |
| 2026-05-07 23:15 | 45.45769 | -73.75600 | 126 ft | 13 kts | 22° |
| 2026-05-07 23:15 | 45.45828 | -73.75585 | 126 ft | 5 kts | 5° |
| 2026-05-07 23:15 | 45.45853 | -73.75581 | 126 ft | 0 kts | 5° |
| 2026-05-07 23:16 | 45.45855 | -73.75581 | 126 ft | 0 kts | 5° |